createdAt,value
2022-11-29T00:01:49.351Z,11.05
2022-11-29T00:04:16.663Z,10.92
2022-11-29T00:06:43.842Z,11.06
2022-11-29T00:09:13.451Z,11.11
2022-11-29T00:12:01.471Z,10.88
2022-11-29T00:14:29.953Z,11.02
2022-11-29T00:17:02.993Z,11.04
2022-11-29T00:19:36.937Z,11.10
2022-11-29T00:22:05.008Z,10.92
2022-11-29T00:24:37.784Z,10.93
2022-11-29T00:27:05.118Z,10.89
2022-11-29T00:29:33.532Z,11.07
2022-11-29T00:32:02.981Z,11.01
2022-11-29T00:34:30.372Z,10.95
2022-11-29T00:36:57.748Z,10.96
2022-11-29T00:39:25.170Z,10.77
2022-11-29T00:41:57.470Z,10.87
2022-11-29T00:44:27.175Z,10.90
2022-11-29T00:46:54.532Z,11.04
2022-11-29T00:49:21.688Z,10.89
2022-11-29T00:51:49.053Z,10.78
2022-11-29T00:54:16.972Z,10.90
2022-11-29T00:56:44.427Z,10.97
2022-11-29T00:59:11.724Z,11.13
2022-11-29T01:01:41.069Z,11.02
2022-11-29T01:04:08.659Z,10.94
2022-11-29T01:06:35.971Z,10.94
2022-11-29T01:09:04.946Z,11.09
2022-11-29T01:11:32.589Z,11.34
2022-11-29T01:14:03.732Z,11.32
2022-11-29T01:16:32.488Z,10.85
2022-11-29T01:19:00.601Z,11.07
2022-11-29T01:21:29.643Z,11.04
2022-11-29T01:23:57.540Z,10.89
2022-11-29T01:26:28.316Z,11.13
2022-11-29T01:28:58.632Z,11.03
2022-11-29T01:31:32.327Z,10.99
2022-11-29T01:34:03.116Z,10.90
2022-11-29T01:36:36.807Z,11.18
2022-11-29T01:39:06.401Z,11.04
2022-11-29T01:41:37.333Z,11.02
2022-11-29T01:44:28.512Z,11.05
2022-11-29T01:46:57.562Z,11.13
2022-11-29T01:49:47.263Z,11.18
2022-11-29T01:52:31.187Z,11.29
2022-11-29T01:55:03.564Z,11.24
2022-11-29T01:57:34.118Z,11.19
2022-11-29T02:00:41.011Z,11.10
2022-11-29T02:03:17.296Z,11.17
2022-11-29T02:05:53.924Z,11.21
2022-11-29T02:08:31.878Z,11.20
2022-11-29T02:11:17.403Z,11.19
2022-11-29T02:14:23.212Z,11.21
2022-11-29T02:17:21.285Z,11.24
2022-11-29T02:20:27.776Z,11.30
2022-11-29T02:23:20.622Z,11.21
2022-11-29T02:26:22.015Z,11.22
2022-11-29T02:29:32.137Z,11.12
2022-11-29T02:32:31.052Z,11.13
2022-11-29T02:35:19.392Z,11.03
2022-11-29T02:38:30.091Z,11.04
2022-11-29T02:41:48.121Z,10.92
2022-11-29T02:44:47.757Z,11.11
2022-11-29T02:47:57.032Z,11.05
2022-11-29T02:50:42.285Z,11.15
2022-11-29T02:53:29.641Z,10.93
2022-11-29T02:56:50.646Z,10.99
2022-11-29T02:59:34.118Z,11.02
2022-11-29T03:02:32.655Z,11.13
2022-11-29T03:05:42.010Z,11.23
2022-11-29T03:08:54.799Z,11.21
2022-11-29T03:12:07.966Z,11.15
2022-11-29T03:15:23.784Z,11.24
2022-11-29T03:18:40.499Z,11.32
2022-11-29T03:21:33.252Z,11.31
2022-11-29T03:24:20.896Z,11.24
2022-11-29T03:27:02.371Z,11.31
2022-11-29T03:30:03.418Z,11.43
2022-11-29T03:32:45.594Z,11.33
2022-11-29T03:35:31.089Z,11.22
2022-11-29T03:38:40.919Z,11.15
2022-11-29T03:41:32.754Z,10.98
2022-11-29T03:44:50.375Z,11.10
2022-11-29T03:47:31.427Z,11.22
2022-11-29T03:50:14.565Z,11.27
2022-11-29T03:53:23.043Z,11.28
2022-11-29T03:55:58.473Z,11.22
2022-11-29T03:59:00.082Z,11.07
2022-11-29T04:01:57.176Z,11.21
2022-11-29T04:05:17.072Z,11.22
2022-11-29T04:08:22.373Z,11.31
2022-11-29T04:11:54.875Z,10.98
2022-11-29T04:15:15.790Z,10.88
2022-11-29T04:18:18.953Z,11.22
2022-11-29T04:21:19.739Z,11.07
2022-11-29T04:24:07.875Z,11.16
2022-11-29T04:27:11.751Z,11.37
2022-11-29T04:30:04.695Z,11.23
2022-11-29T04:33:32.426Z,11.34
2022-11-29T04:37:07.214Z,11.37
2022-11-29T04:39:54.205Z,11.39
2022-11-29T04:43:01.291Z,11.43
2022-11-29T04:46:01.297Z,11.29
2022-11-29T04:49:02.190Z,11.33
2022-11-29T04:52:32.049Z,11.67
2022-11-29T04:55:26.373Z,11.36
2022-11-29T04:58:37.787Z,11.04
2022-11-29T05:02:08.581Z,11.06
2022-11-29T05:04:56.641Z,11.27
2022-11-29T05:07:39.917Z,11.45
2022-11-29T05:11:06.888Z,10.94
2022-11-29T05:14:16.650Z,11.10
2022-11-29T05:16:54.063Z,11.17
2022-11-29T05:19:58.301Z,11.37
2022-11-29T05:22:40.586Z,11.34
2022-11-29T05:25:54.775Z,11.21
2022-11-29T05:28:51.119Z,11.29
2022-11-29T05:32:18.182Z,11.51
2022-11-29T05:35:22.256Z,11.53
2022-11-29T05:37:57.588Z,11.58
2022-11-29T05:41:08.739Z,11.47
2022-11-29T05:44:08.744Z,11.35
2022-11-29T05:47:10.159Z,11.41
2022-11-29T05:50:17.547Z,11.51
2022-11-29T05:52:56.432Z,11.53
2022-11-29T05:55:41.521Z,11.56
2022-11-29T05:58:50.197Z,11.66
2022-11-29T06:01:24.146Z,11.64
2022-11-29T06:04:20.269Z,11.73
2022-11-29T06:07:16.388Z,11.59
2022-11-29T06:09:48.716Z,11.59
2022-11-29T06:12:26.843Z,11.38
2022-11-29T06:16:16.793Z,11.30
2022-11-29T06:20:10.243Z,11.35
2022-11-29T06:23:28.893Z,11.28
2022-11-29T06:26:34.408Z,11.50
2022-11-29T06:29:25.751Z,11.61
2022-11-29T06:32:17.266Z,11.62
2022-11-29T06:35:07.721Z,11.55
2022-11-29T06:37:50.820Z,11.64
2022-11-29T06:40:18.491Z,11.56
2022-11-29T06:42:45.904Z,11.62
2022-11-29T06:45:16.009Z,11.41
2022-11-29T06:47:58.188Z,11.39
2022-11-29T06:50:56.059Z,11.47
2022-11-29T06:53:51.883Z,11.75
2022-11-29T06:56:44.285Z,11.81
2022-11-29T06:59:38.369Z,11.79
2022-11-29T07:02:28.104Z,11.84
2022-11-29T07:05:32.197Z,11.71
2022-11-29T07:08:27.178Z,11.87
2022-11-29T07:10:56.046Z,11.45
2022-11-29T07:13:23.990Z,11.66
2022-11-29T07:16:04.296Z,11.60
2022-11-29T07:19:20.834Z,11.73
2022-11-29T07:22:33.540Z,11.72
2022-11-29T07:25:51.308Z,11.99
2022-11-29T07:29:14.195Z,11.69
2022-11-29T07:32:17.993Z,11.55
2022-11-29T07:35:14.410Z,11.73
2022-11-29T07:38:42.143Z,11.86
2022-11-29T07:41:21.179Z,11.91
2022-11-29T07:44:16.945Z,11.87
2022-11-29T07:46:44.646Z,11.80
2022-11-29T07:49:12.213Z,11.89
2022-11-29T07:51:39.734Z,11.84
2022-11-29T07:54:07.394Z,12.01
2022-11-29T07:56:34.644Z,12.12
2022-11-29T07:59:01.953Z,12.11
2022-11-29T08:01:29.320Z,12.09
2022-11-29T08:03:56.543Z,12.12
2022-11-29T08:06:26.714Z,12.11
2022-11-29T08:08:57.508Z,12.22
2022-11-29T08:11:25.358Z,12.11
2022-11-29T08:14:05.162Z,12.21
2022-11-29T08:16:33.349Z,12.21
2022-11-29T08:19:00.759Z,12.04
2022-11-29T08:21:30.251Z,12.12
2022-11-29T08:23:57.592Z,12.14
2022-11-29T08:26:29.809Z,11.99
2022-11-29T08:28:58.998Z,12.12
2022-11-29T08:31:26.413Z,12.04
2022-11-29T08:33:54.031Z,12.16
2022-11-29T08:36:21.706Z,12.14
2022-11-29T08:38:49.114Z,12.25
2022-11-29T08:41:18.059Z,12.19
2022-11-29T08:43:45.859Z,12.16
2022-11-29T08:46:18.301Z,12.26
2022-11-29T08:48:47.733Z,12.15
2022-11-29T08:51:15.848Z,12.33
2022-11-29T08:53:43.456Z,12.43
2022-11-29T08:59:07.991Z,12.46
2022-11-29T09:01:35.370Z,12.55
2022-11-29T09:04:03.124Z,12.54
2022-11-29T09:06:40.940Z,12.64
2022-11-29T09:09:08.480Z,12.81
2022-11-29T09:11:36.878Z,12.85
2022-11-29T09:14:08.073Z,12.75
2022-11-29T09:16:38.478Z,12.70
2022-11-29T09:19:07.353Z,12.89
2022-11-29T09:21:38.648Z,12.68
2022-11-29T09:24:06.926Z,12.82
2022-11-29T09:26:37.996Z,12.93
2022-11-29T09:29:07.388Z,13.13
2022-11-29T09:31:35.891Z,12.78
2022-11-29T09:34:03.695Z,13.01
2022-11-29T09:36:39.794Z,13.03
2022-11-29T09:39:07.101Z,13.08
2022-11-29T09:42:07.624Z,13.28
2022-11-29T09:45:07.312Z,13.03
2022-11-29T09:48:22.011Z,13.03
2022-11-29T09:51:30.047Z,12.93
2022-11-29T09:54:24.936Z,13.08
2022-11-29T09:56:55.752Z,13.10
2022-11-29T09:59:41.062Z,13.03
2022-11-29T10:02:36.860Z,12.59
2022-11-29T10:05:26.274Z,12.66
2022-11-29T10:08:14.796Z,12.56
2022-11-29T10:10:54.873Z,12.24
2022-11-29T10:13:49.237Z,11.82
2022-11-29T10:16:32.500Z,12.04
2022-11-29T10:19:33.414Z,11.77
2022-11-29T10:22:31.390Z,11.96
2022-11-29T10:25:02.792Z,12.47
2022-11-29T10:27:57.287Z,12.64
2022-11-29T10:30:22.115Z,12.43
2022-11-29T10:33:00.698Z,12.67
2022-11-29T10:35:29.649Z,12.86
2022-11-29T10:41:09.441Z,13.06
2022-11-29T10:43:38.287Z,13.10
2022-11-29T10:46:17.252Z,12.31
2022-11-29T10:48:44.868Z,12.20
2022-11-29T10:51:17.927Z,12.51
2022-11-29T10:53:46.781Z,12.05
2022-11-29T10:56:29.332Z,11.81
2022-11-29T10:59:08.978Z,12.28
2022-11-29T11:01:42.411Z,12.75
2022-11-29T11:04:44.884Z,13.13
2022-11-29T11:07:40.937Z,12.90
2022-11-29T11:10:28.264Z,12.98
2022-11-29T11:13:20.315Z,13.23
2022-11-29T11:15:47.856Z,13.53
2022-11-29T11:18:26.566Z,13.68
2022-11-29T11:20:59.075Z,13.89
2022-11-29T11:23:42.382Z,13.96
2022-11-29T11:26:14.954Z,14.05
2022-11-29T11:29:00.676Z,14.13
2022-11-29T11:31:38.322Z,13.71
2022-11-29T11:34:24.369Z,13.98
2022-11-29T11:36:53.541Z,13.93
2022-11-29T11:39:24.137Z,13.98
2022-11-29T11:42:11.476Z,13.73
2022-11-29T11:44:50.139Z,13.74
2022-11-29T11:47:27.354Z,13.52
2022-11-29T11:50:04.782Z,13.69
2022-11-29T11:52:53.254Z,13.84
2022-11-29T11:55:40.913Z,14.17
2022-11-29T11:58:23.410Z,14.08
2022-11-29T12:01:04.499Z,13.88
2022-11-29T12:04:06.672Z,14.24
2022-11-29T12:07:38.739Z,14.14
2022-11-29T12:10:23.090Z,14.16
2022-11-29T12:12:53.567Z,14.14
2022-11-29T12:15:29.720Z,13.91
2022-11-29T12:18:16.538Z,13.91
2022-11-29T12:21:08.743Z,13.84
2022-11-29T12:24:02.695Z,13.87
2022-11-29T12:29:34.265Z,13.75
2022-11-29T12:32:52.300Z,13.75
2022-11-29T12:36:15.540Z,13.83
2022-11-29T12:39:39.255Z,13.72
2022-11-29T12:42:40.845Z,13.40
2022-11-29T12:45:52.389Z,13.73
2022-11-29T12:48:26.840Z,13.84
2022-11-29T12:51:09.938Z,13.59
2022-11-29T12:53:59.323Z,13.53
2022-11-29T12:56:48.181Z,13.34
2022-11-29T13:00:07.014Z,13.10
2022-11-29T13:02:59.131Z,13.21
2022-11-29T13:06:14.358Z,13.19
2022-11-29T13:09:23.795Z,13.10
2022-11-29T13:12:29.445Z,13.24
2022-11-29T13:15:18.044Z,13.41
2022-11-29T13:18:02.578Z,13.50
2022-11-29T13:20:59.641Z,13.54
2022-11-29T13:24:10.194Z,13.18
2022-11-29T13:26:43.440Z,13.16
2022-11-29T13:29:18.796Z,13.35
2022-11-29T13:31:47.805Z,13.39
2022-11-29T13:34:21.213Z,13.45
2022-11-29T13:37:10.803Z,13.50
2022-11-29T13:40:26.054Z,13.63
2022-11-29T13:43:44.057Z,13.69
2022-11-29T13:46:59.678Z,13.20
2022-11-29T13:50:44.040Z,13.37
2022-11-29T13:53:23.694Z,13.23
2022-11-29T13:56:01.413Z,12.86
2022-11-29T13:58:28.658Z,12.84
2022-11-29T14:01:13.228Z,12.98
2022-11-29T14:04:00.901Z,12.77
2022-11-29T14:06:40.679Z,13.10
2022-11-29T14:09:43.756Z,13.01
2022-11-29T14:12:39.532Z,12.69
2022-11-29T14:15:23.096Z,12.79
2022-11-29T14:17:59.216Z,12.89
2022-11-29T14:20:28.038Z,12.80
2022-11-29T14:23:06.574Z,12.70
2022-11-29T14:25:55.822Z,12.30
2022-11-29T14:28:48.342Z,12.35
2022-11-29T14:31:54.036Z,12.48
2022-11-29T14:34:33.440Z,12.27
2022-11-29T14:37:19.995Z,12.41
2022-11-29T14:39:54.648Z,12.48
2022-11-29T14:42:26.434Z,12.19
2022-11-29T14:45:04.854Z,12.36
2022-11-29T14:47:38.961Z,12.36
2022-11-29T14:50:10.488Z,12.11
2022-11-29T14:52:51.631Z,12.11
2022-11-29T14:55:24.594Z,12.13
2022-11-29T14:58:06.014Z,12.08
2022-11-29T15:00:56.141Z,12.06
2022-11-29T15:03:43.431Z,12.14
2022-11-29T15:06:30.214Z,12.12
2022-11-29T15:09:12.852Z,12.03
2022-11-29T15:11:59.643Z,11.71
2022-11-29T15:14:55.898Z,11.72
2022-11-29T15:17:47.972Z,11.70
2022-11-29T15:21:02.563Z,11.70
2022-11-29T15:23:44.116Z,11.82
2022-11-29T15:26:21.577Z,11.88
2022-11-29T15:28:52.527Z,11.68
2022-11-29T15:31:22.296Z,11.81
2022-11-29T15:33:51.589Z,11.57
2022-11-29T15:36:24.358Z,11.79
2022-11-29T15:39:04.349Z,11.70
2022-11-29T15:41:35.762Z,11.74
2022-11-29T15:44:21.361Z,11.68
2022-11-29T15:46:50.963Z,11.54
2022-11-29T15:49:38.282Z,11.62
2022-11-29T15:52:20.670Z,11.46
2022-11-29T15:55:02.140Z,11.64
2022-11-29T15:57:41.179Z,11.67
2022-11-29T16:00:20.285Z,11.56
2022-11-29T16:03:06.645Z,11.78
2022-11-29T16:05:39.180Z,11.57
2022-11-29T16:08:19.491Z,11.13
2022-11-29T16:10:53.015Z,11.41
2022-11-29T16:13:31.194Z,11.40
2022-11-29T16:16:10.243Z,11.83
2022-11-29T16:18:41.650Z,11.92
2022-11-29T16:21:32.680Z,11.85
2022-11-29T16:24:21.729Z,11.67
2022-11-29T16:26:51.090Z,11.86
2022-11-29T16:29:36.513Z,12.03
2022-11-29T16:32:41.370Z,12.17
2022-11-29T16:35:22.446Z,11.99
2022-11-29T16:37:50.955Z,11.63
2022-11-29T16:40:30.398Z,11.61
2022-11-29T16:43:19.666Z,11.56
2022-11-29T16:45:47.363Z,11.53
2022-11-29T16:48:24.600Z,11.87
2022-11-29T16:51:10.429Z,11.63
2022-11-29T16:53:48.473Z,11.27
2022-11-29T16:56:19.731Z,11.52
2022-11-29T16:59:24.862Z,11.64
2022-11-29T17:01:48.429Z,11.58
2022-11-29T17:04:24.473Z,11.32
2022-11-29T17:06:59.571Z,11.43
2022-11-29T17:09:36.222Z,11.60
2022-11-29T17:12:04.008Z,11.45
2022-11-29T17:14:32.844Z,11.50
2022-11-29T17:17:07.319Z,11.52
2022-11-29T17:19:34.864Z,11.39
2022-11-29T17:22:02.300Z,11.35
2022-11-29T17:24:29.651Z,11.52
2022-11-29T17:27:01.258Z,11.48
2022-11-29T17:29:33.186Z,11.54
2022-11-29T17:32:00.528Z,11.74
2022-11-29T17:34:27.707Z,11.53
2022-11-29T17:36:54.971Z,11.63
2022-11-29T17:39:24.517Z,11.66
2022-11-29T17:41:54.239Z,11.75
2022-11-29T17:44:21.624Z,11.71
2022-11-29T17:46:48.779Z,11.65
2022-11-29T17:49:18.716Z,11.25
2022-11-29T17:51:53.787Z,11.34
2022-11-29T17:54:23.267Z,11.47
2022-11-29T17:56:51.852Z,11.54
2022-11-29T17:59:19.443Z,11.67
2022-11-29T18:01:47.482Z,11.92
2022-11-29T18:04:30.889Z,11.53
2022-11-29T18:07:18.929Z,11.73
2022-11-29T18:09:53.630Z,11.82
2022-11-29T18:12:46.242Z,11.52
2022-11-29T18:15:13.569Z,11.32
2022-11-29T18:17:43.708Z,11.13
2022-11-29T18:20:13.984Z,11.33
2022-11-29T18:22:41.439Z,11.46
2022-11-29T18:25:37.624Z,11.43
2022-11-29T18:28:02.298Z,11.38
2022-11-29T18:31:11.049Z,11.45
2022-11-29T18:33:40.818Z,11.56
2022-11-29T18:36:36.935Z,11.47
2022-11-29T18:39:17.584Z,11.39
2022-11-29T18:41:52.591Z,11.41
2022-11-29T18:44:29.172Z,11.28
2022-11-29T18:46:58.770Z,11.35
2022-11-29T18:49:27.269Z,11.43
2022-11-29T18:51:58.261Z,11.48
2022-11-29T18:54:25.695Z,11.49
2022-11-29T18:56:55.257Z,11.44
2022-11-29T18:59:47.458Z,11.39
2022-11-29T19:02:19.975Z,11.37
2022-11-29T19:04:50.131Z,11.45
2022-11-29T19:07:18.650Z,11.57
2022-11-29T19:09:46.272Z,11.53
2022-11-29T19:12:38.362Z,11.41
2022-11-29T19:15:10.323Z,11.45
2022-11-29T19:17:42.945Z,11.40
2022-11-29T19:20:12.343Z,11.32
2022-11-29T19:22:42.174Z,11.28
2022-11-29T19:25:11.371Z,11.34
2022-11-29T19:27:45.227Z,11.04
2022-11-29T19:30:16.246Z,11.21
2022-11-29T19:32:43.971Z,11.15
2022-11-29T19:35:11.312Z,11.17
2022-11-29T19:37:38.654Z,11.16
2022-11-29T19:40:09.270Z,11.14
2022-11-29T19:42:51.909Z,11.24
2022-11-29T19:45:21.926Z,11.21
2022-11-29T19:47:51.199Z,11.26
2022-11-29T19:50:43.352Z,11.20
2022-11-29T19:53:13.608Z,11.28
2022-11-29T19:55:58.836Z,11.17
2022-11-29T19:59:04.561Z,11.28
2022-11-29T20:01:42.062Z,11.22
2022-11-29T20:04:14.041Z,11.27
2022-11-29T20:06:57.927Z,11.36
2022-11-29T20:09:28.605Z,11.27
2022-11-29T20:11:55.864Z,11.24
2022-11-29T20:14:23.204Z,11.18
2022-11-29T20:16:50.498Z,11.25
2022-11-29T20:19:18.148Z,11.04
2022-11-29T20:21:49.378Z,11.21
2022-11-29T20:24:19.512Z,10.93
2022-11-29T20:26:50.655Z,11.15
2022-11-29T20:29:27.038Z,11.25
2022-11-29T20:31:54.409Z,11.29
2022-11-29T20:34:24.891Z,11.31
2022-11-29T20:37:58.721Z,10.99
2022-11-29T20:41:19.405Z,11.25
2022-11-29T20:44:01.955Z,11.22
2022-11-29T20:46:30.124Z,11.40
2022-11-29T20:49:03.151Z,11.38
2022-11-29T20:51:53.273Z,11.37
2022-11-29T20:54:20.710Z,11.30
2022-11-29T20:56:47.985Z,11.39
2022-11-29T20:59:17.938Z,11.36
2022-11-29T21:01:45.452Z,11.47
2022-11-29T21:04:23.208Z,11.46
2022-11-29T21:06:58.410Z,11.45
2022-11-29T21:09:25.701Z,11.52
2022-11-29T21:11:57.185Z,11.51
2022-11-29T21:14:26.177Z,10.48
2022-11-29T21:16:54.675Z,10.41
2022-11-29T21:19:26.032Z,10.56
2022-11-29T21:22:08.562Z,10.84
2022-11-29T21:25:19.644Z,10.77
2022-11-29T21:27:51.812Z,10.61
2022-11-29T21:30:24.979Z,10.58
2022-11-29T21:32:56.491Z,10.47
2022-11-29T21:35:25.334Z,10.58
2022-11-29T21:38:00.516Z,10.55
2022-11-29T21:40:28.463Z,10.42
2022-11-29T21:42:58.220Z,10.29
2022-11-29T21:45:25.610Z,9.99
2022-11-29T21:47:55.361Z,10.29
2022-11-29T21:50:22.768Z,10.64
2022-11-29T21:52:52.563Z,10.77
2022-11-29T21:55:21.976Z,10.95
2022-11-29T21:57:49.330Z,11.15
2022-11-29T22:00:17.946Z,11.22
2022-11-29T22:02:45.720Z,11.06
2022-11-29T22:05:13.144Z,11.30
2022-11-29T22:07:40.524Z,11.34
2022-11-29T22:10:13.317Z,11.36
2022-11-29T22:12:51.801Z,11.38
2022-11-29T22:15:24.640Z,11.48
2022-11-29T22:17:55.881Z,11.34
2022-11-29T22:20:23.180Z,11.51
2022-11-29T22:22:53.504Z,11.36
2022-11-29T22:25:24.452Z,11.07
2022-11-29T22:27:51.762Z,11.15
2022-11-29T22:30:27.905Z,11.14
2022-11-29T22:32:57.128Z,11.31
2022-11-29T22:35:24.465Z,11.35
2022-11-29T22:37:51.759Z,11.14
2022-11-29T22:40:19.261Z,11.25
2022-11-29T22:42:52.614Z,11.21
2022-11-29T22:45:20.415Z,11.24
2022-11-29T22:47:48.074Z,11.18
2022-11-29T22:50:15.394Z,10.81
2022-11-29T22:52:42.822Z,10.92
2022-11-29T22:55:10.371Z,10.88
2022-11-29T22:57:37.562Z,11.03
2022-11-29T23:00:06.433Z,11.00
2022-11-29T23:02:33.851Z,11.04
2022-11-29T23:05:02.301Z,11.00
2022-11-29T23:07:29.753Z,11.02
2022-11-29T23:10:04.144Z,10.89
2022-11-29T23:12:31.513Z,10.86
2022-11-29T23:14:58.971Z,11.02
2022-11-29T23:17:27.374Z,11.09
2022-11-29T23:19:54.623Z,11.04
2022-11-29T23:22:22.430Z,11.06
2022-11-29T23:24:49.715Z,11.10
2022-11-29T23:27:17.183Z,10.91
2022-11-29T23:29:44.729Z,11.10
2022-11-29T23:32:12.043Z,11.11
2022-11-29T23:34:39.247Z,11.04
2022-11-29T23:37:06.534Z,11.03
2022-11-29T23:39:33.928Z,11.07
2022-11-29T23:42:01.057Z,11.04
2022-11-29T23:44:28.388Z,11.08
2022-11-29T23:46:55.713Z,11.06
2022-11-29T23:49:23.021Z,11.04
2022-11-29T23:51:50.605Z,11.01
2022-11-29T23:54:17.757Z,11.04
2022-11-29T23:56:45.086Z,10.97
2022-11-29T23:59:12.465Z,10.94
